To NAV CANADA Home Page Login to a new session Search on AWWS site Disclaimer Vers la page française équivalente Tips FAQ What's new on the site To the Forecasts and Observations / NOTAM section To "File a Flight Plan" website Publications and other links Update of the User's profile FIC Telephone Numbers My Weather Data Folder Route Weather Data Regional Weather Data Local Weather Data To the Forecasts and Observations / NOTAM section
Request Generated 10/27/2020 at 09:42:07 UTC . Weather information available at that time is displayed.


Go to a specific product

Save this request

NOTAM

NOTAM


SIGMET
To the Product Selector

SIGMETS GFACN32

WSCN32 CWEG 270840
SIGMET E4 VALID 270840/270845 CWEG-
CZWG WINNIPEG FIR CNCL SIGMET E3 270445/270845
RMK GFACN32 GFACN33
END/WSCN23/CWAO

WSCN32 CWEG 270443
SIGMET I2 VALID 270440/270550 CWEG-
CZEG EDMONTON FIR CNCL SIGMET I1 270150/270550
RMK GFACN32 GFACN31
END/WSCN22/CWAO

WSCN32 CWEG 270900
SIGMET K3 VALID 270900/271040 CWEG-
CZEG EDMONTON FIR CNCL SIGMET K2 270640/271040
RMK GFACN32
END/WSCN22/CWAO

WSCN32 CWEG 270840
SIGMET L3 VALID 270840/271040 CWEG-
CZEG EDMONTON FIR CNCL SIGMET L2 270640/271040
RMK GFACN32
END/WSCN22/CWAO

WSCN32 CWEG 270930
SIGMET O2 VALID 270930/271330 CWEG-
CZEG EDMONTON FIR SEV TURB OBS WTN 30 NM OF LINE /N4930 W11423/60 E CYXC -
/N4934 W11231/10 E CYQL SFC/FL060 QS NC
RMK GFACN32 GFACN31
END/WSCN22/CWAO



AIRMET
To the Product Selector

AIRMETS GFACN32

GFACN32 - No AIRMET bulletins in effect



PIREP
To the Product Selector

FIR_WINNIPEG (WG)


UACN10 CYXE 270736
WG
UA /OV YXE 180002 /TM 0735 /FL040 /TP C182 /TA -02 /WV 255025


METAR/TAF
To the Product Selector

REGINA INTL/SK    

METAR CYQR 270900Z 21012KT 15SM OVC100 M04/M08 A2974 RMK AC8 PRESFR SLP101=
METAR CYQR 270800Z 22009KT 15SM SCT140 M05/M08 A2979 RMK AC3 PRESFR SLP122=
METAR CYQR 270700Z 23011KT 15SM OVC140 M05/M08 A2982 RMK AC8 SLP134=

TAF CYQR 270538Z 2706/2806 24010KT P6SM FEW180 OVC260
FM270900 24012KT P6SM SCT060 OVC100
FM271100 24015G25KT P6SM -SN SCT020 OVC060 TEMPO 2711/2715 21/2SM
-SN OVC020 PROB30 2712/2715 P6SM -FZRA
FM271500 26018G28KT P6SM SCT015 OVC040 TEMPO 2715/2722 P6SM -SHRA
BKN015 OVC040
BECMG 2716/2718 30018G28KT
FM272200 30012G22KT P6SM BKN040 TEMPO 2722/2806 P6SM -SHRA
RMK NXT FCST BY 271200Z=

MOOSE JAW/AIR VICE MARSHAL C.M. MCEWEN/SK    

CYMJ - METAR not available

*** REMARK        : Forecast period has ended; this was the last TAF issued
*** REMARQUE : La période de prévision est échue; ceci était le dernier TAF qui a été émis
TAF AMD CYMJ 262300Z 2618/2706 FCST CNCLD DUE END OF FLYING PROGRAM
RMK NXT FCST WILL BE ISSUED AT 271115Z=


RADAR PCPN RATE
To the Product Selector
Pacific Canada      Western Canada     

SATELLITE VISIBLE
To the Product Selector
West Canada      

SATELLITE INFRARED
To the Product Selector
West Canada     

GRAPHICAL FA CLOUDS & WEATHER FORECASTS
To the Product Selector
Graphical FA gfacn32      

GRAPHICAL FA ICING, TURBULENCE & FREEZING LEVEL FORECASTS
To the Product Selector
Graphical FA gfacn32      

FDTEXT Low Level FD. Temperatures are not forecast for the 3,000-foot level.
To the Product Selector
STN YQR - REGINA. SASK for use 3000 6000 9000 12000 18000
FDCN01 CWAO FCST BASED ON 270000 DATA VALID 270600 05-09 2724-04 2925-09 3130-13 3351-17
FDCN02 CWAO FCST BASED ON 270000 DATA VALID 271200 09-18 2838-02 2943-05 3150-07 3068-15
FDCN03 CWAO FCST BASED ON 270000 DATA VALID 280000 18-05 3040+00 3047-06 3153-12 3181-18



Your time UTC time
Weather data provided by Environment Canada and NAV CANADA